Time;durP1;ratioP1;P1;durP2;ratioP2;P2;SDS_P1;SDS_P2;PMS_P1;PMS_P2;Temp;Humidity;BMP_temperature;BMP_pressure;BME280_temperature;BME280_humidity;BME280_pressure;Samples;Min_cycle;Max_cycle;Signal;HPM_P1;HPM_P2
2023/10/02 00:01:53;;;;;;;7.10;4.15;;;;;;;17.28;74.59;99459.66;5080999;28;20040;-95
2023/10/02 00:04:20;;;;;;;7.25;4.30;;;;;;;16.89;76.41;99428.19;5103033;28;20044;-94
2023/10/02 00:06:47;;;;;;;7.20;4.22;;;;;;;16.70;77.83;99443.28;5103812;28;20036;-94
2023/10/02 00:09:13;;;;;;;7.28;4.80;;;;;;;16.92;76.06;99425.38;5096751;28;20048;-93
2023/10/02 00:11:40;;;;;;;7.70;4.20;;;;;;;17.52;75.60;99516.00;5094967;28;20494;-93
2023/10/02 00:17:18;;;;;;;7.38;5.32;;;;;;;17.68;73.64;99489.31;5188532;27;20385;-95
2023/10/02 00:19:46;;;;;;;7.97;4.25;;;;;;;17.88;73.66;99505.47;5150615;27;20043;-94
2023/10/02 00:25:16;;;;;;;5.65;4.15;;;;;;;17.83;73.28;99502.97;5094961;27;20897;-94
2023/10/02 00:27:46;;;;;;;6.85;4.35;;;;;;;17.84;73.35;99502.00;5092590;28;20047;-92
2023/10/02 00:30:14;;;;;;;8.02;4.25;;;;;;;17.83;73.22;99499.41;5091047;28;20040;-94
2023/10/02 00:32:41;;;;;;;6.43;4.03;;;;;;;17.55;73.21;99454.03;5093680;28;20036;-94
2023/10/02 00:35:11;;;;;;;7.85;4.25;;;;;;;17.76;73.15;99471.88;5094206;28;20036;-93
2023/10/02 00:37:47;;;;;;;7.45;4.05;;;;;;;17.65;73.02;99461.63;5092350;28;20032;-93
2023/10/02 00:40:21;;;;;;;8.80;4.20;;;;;;;17.71;73.62;99481.97;5091156;28;20032;-93
2023/10/02 00:42:48;;;;;;;5.63;3.70;;;;;;;17.71;73.58;99495.41;5093334;28;20040;-94
2023/10/02 00:45:16;;;;;;;7.57;4.35;;;;;;;17.18;74.23;99426.06;5092612;28;20464;-94
2023/10/02 00:47:42;;;;;;;6.32;4.10;;;;;;;17.36;74.69;99476.34;5093549;28;20036;-94
2023/10/02 00:50:10;;;;;;;6.50;3.97;;;;;;;17.10;75.51;99436.28;5092976;28;20135;-93
2023/10/02 00:52:40;;;;;;;7.95;4.32;;;;;;;17.22;75.64;99450.06;5093786;28;20059;-94
2023/10/02 00:55:09;;;;;;;6.43;4.10;;;;;;;17.42;74.51;99464.44;5094091;28;20429;-95
2023/10/02 00:57:38;;;;;;;5.32;3.78;;;;;;;17.90;73.61;99500.00;5094022;28;20059;-94
2023/10/02 01:00:07;;;;;;;8.13;4.15;;;;;;;17.74;73.34;99462.13;5092856;28;20079;-93
2023/10/02 01:02:35;;;;;;;5.97;4.13;;;;;;;17.97;73.10;99506.84;5093586;28;20048;-92
2023/10/02 01:05:03;;;;;;;6.45;4.25;;;;;;;17.46;73.71;99439.19;5093803;28;20448;-94
2023/10/02 01:07:33;;;;;;;7.50;4.22;;;;;;;17.72;74.17;99490.91;5093349;28;20079;-93
2023/10/02 01:10:09;;;;;;;5.90;4.10;;;;;;;17.48;73.67;99450.75;5092470;28;20050;-94
2023/10/02 01:12:44;;;;;;;10.32;4.55;;;;;;;17.47;73.07;99437.34;5091364;28;20405;-92
2023/10/02 01:15:12;;;;;;;6.85;3.95;;;;;;;17.45;74.06;99449.03;5089921;28;20520;-93
2023/10/02 01:17:40;;;;;;;7.72;3.92;;;;;;;17.63;74.31;99484.13;5092983;28;20040;-94
2023/10/02 01:20:20;;;;;;;7.32;4.72;;;;;;;17.52;74.14;99464.91;5092386;28;20041;-93
2023/10/02 01:22:52;;;;;;;7.95;4.22;;;;;;;17.47;74.74;99466.94;5091940;28;20036;-94
2023/10/02 01:25:23;;;;;;;8.02;4.55;;;;;;;17.17;75.07;99430.56;5090861;28;20485;-93
2023/10/02 01:27:51;;;;;;;8.25;4.63;;;;;;;17.04;75.00;99405.16;5092835;28;20071;-93
2023/10/02 01:30:20;;;;;;;7.30;4.47;;;;;;;17.01;75.28;99416.91;5091751;28;20037;-92
2023/10/02 01:35:53;;;;;;;7.60;4.30;;;;;;;17.00;76.92;99465.34;5108306;27;20888;-95
2023/10/02 01:38:27;;;;;;;7.25;4.70;;;;;;;16.93;77.71;99474.59;5073504;28;20063;-93
2023/10/02 01:40:54;;;;;;;6.22;4.28;;;;;;;16.82;77.90;99470.53;5074258;28;20049;-94
2023/10/02 01:43:22;;;;;;;6.13;4.03;;;;;;;16.73;78.75;99467.34;5072971;28;20613;-93
2023/10/02 01:45:48;;;;;;;8.13;4.30;;;;;;;16.68;78.09;99458.63;5072888;28;20497;-93
2023/10/02 01:48:36;;;;;;;7.30;4.35;;;;;;;16.78;78.48;99493.06;5073511;28;20131;-94
2023/10/02 01:54:15;;;;;;;9.48;5.05;;;;;;;16.58;79.99;99469.72;5102959;27;20400;-93
2023/10/02 01:56:47;;;;;;;8.57;4.72;;;;;;;16.43;79.73;99454.22;5072118;28;20060;-95
2023/10/02 01:59:21;;;;;;;9.68;5.63;;;;;;;16.13;80.68;99410.69;5072312;28;20498;-93
2023/10/02 02:01:52;;;;;;;8.20;5.30;;;;;;;16.15;82.16;99430.28;5071965;28;20060;-93
2023/10/02 02:04:17;;;;;;;9.80;5.03;;;;;;;16.17;81.45;99431.97;5072835;28;20037;-95
2023/10/02 02:06:51;;;;;;;8.27;5.05;;;;;;;16.32;82.79;99504.78;5072771;28;20052;-94
2023/10/02 02:09:27;;;;;;;9.52;5.13;;;;;;;16.10;82.50;99446.56;5072900;28;20052;-93
2023/10/02 02:14:56;;;;;;;14.15;4.97;;;;;;;16.87;81.86;99496.34;5188925;27;20375;-92
2023/10/02 02:17:23;;;;;;;7.13;5.03;;;;;;;16.94;80.00;99454.88;5163308;27;20067;-94
2023/10/02 02:19:49;;;;;;;11.68;5.35;;;;;;;17.22;79.13;99478.75;5153512;27;20043;-94
2023/10/02 02:22:16;;;;;;;8.52;5.22;;;;;;;17.17;77.24;99445.81;5152247;27;20042;-94
2023/10/02 02:24:42;;;;;;;7.80;4.47;;;;;;;17.19;76.15;99441.25;5149548;27;20061;-94
2023/10/02 02:27:08;;;;;;;8.52;4.53;;;;;;;17.56;74.69;99455.75;5150939;27;20126;-94
2023/10/02 02:29:34;;;;;;;9.65;4.45;;;;;;;17.65;74.02;99458.91;5150442;27;20042;-93
2023/10/02 02:32:02;;;;;;;6.63;4.15;;;;;;;17.45;74.96;99443.66;5143773;27;20034;-94
2023/10/02 02:34:28;;;;;;;7.93;4.65;;;;;;;17.57;75.57;99477.22;5153926;27;20069;-94
2023/10/02 02:36:54;;;;;;;7.03;4.75;;;;;;;17.14;75.92;99425.31;5145063;27;20095;-95
2023/10/02 02:39:23;;;;;;;12.25;4.85;;;;;;;17.16;76.15;99444.94;5151103;27;20062;-94
2023/10/02 02:42:08;;;;;;;8.02;4.80;;;;;;;16.89;76.65;99421.94;5152380;27;20042;-93
2023/10/02 02:44:39;;;;;;;8.73;4.55;;;;;;;16.74;77.15;99420.75;5152341;27;20043;-94
2023/10/02 02:47:08;;;;;;;8.73;4.70;;;;;;;16.63;77.61;99411.34;5145773;27;20038;-94
2023/10/02 02:49:48;;;;;;;7.50;4.72;;;;;;;17.04;77.77;99494.72;5148862;27;20601;-94
2023/10/02 02:52:16;;;;;;;8.25;4.07;;;;;;;16.80;78.27;99479.59;5150871;27;20035;-95
2023/10/02 02:54:44;;;;;;;7.72;4.10;;;;;;;16.27;78.90;99402.09;5147970;27;20035;-94
2023/10/02 02:57:12;;;;;;;7.95;4.10;;;;;;;16.44;79.91;99466.72;5147813;27;20039;-95
2023/10/02 02:59:38;;;;;;;7.50;4.60;;;;;;;16.25;80.69;99446.91;5143712;27;20042;-95
2023/10/02 03:02:21;;;;;;;6.80;4.13;;;;;;;16.22;80.26;99430.00;5147858;27;20130;-95
2023/10/02 03:04:50;;;;;;;9.02;5.57;;;;;;;16.26;81.23;99462.06;5143960;27;20446;-94
2023/10/02 03:07:29;;;;;;;7.50;4.22;;;;;;;16.11;81.57;99451.03;5145634;27;20043;-94
2023/10/02 03:09:59;;;;;;;10.13;5.15;;;;;;;16.25;81.96;99485.34;5145758;27;20153;-95
2023/10/02 03:12:25;;;;;;;8.98;5.03;;;;;;;16.29;81.72;99502.22;5146383;27;20570;-94
2023/10/02 03:14:54;;;;;;;7.90;4.70;;;;;;;16.06;82.19;99469.06;5149172;27;20125;-94
2023/10/02 03:17:28;;;;;;;8.20;5.07;;;;;;;15.82;82.98;99439.56;5148982;27;20039;-94
2023/10/02 03:19:58;;;;;;;8.07;4.78;;;;;;;15.87;82.36;99449.25;5148539;27;20046;-94
2023/10/02 03:22:24;;;;;;;8.02;5.07;;;;;;;16.06;82.36;99477.13;5147189;27;20430;-94
2023/10/02 03:24:51;;;;;;;11.27;5.30;;;;;;;15.68;84.13;99439.19;5143402;27;20061;-94
2023/10/02 03:27:19;;;;;;;10.55;5.30;;;;;;;15.70;84.23;99458.78;5131405;27;20042;-93
2023/10/02 03:29:45;;;;;;;10.05;5.25;;;;;;;15.92;84.15;99492.88;5132532;27;20047;-94
2023/10/02 03:32:11;;;;;;;16.20;7.47;;;;;;;15.88;85.12;99502.84;5133839;27;20438;-93
2023/10/02 03:34:38;;;;;;;11.00;6.15;;;;;;;15.85;85.30;99502.94;5136701;27;20123;-93
2023/10/02 03:37:14;;;;;;;10.40;5.18;;;;;;;15.73;85.60;99490.88;5136439;27;20039;-93
2023/10/02 03:42:42;;;;;;;9.30;6.45;;;;;;;15.48;89.97;99516.78;5087625;27;20375;-93
2023/10/02 03:45:09;;;;;;;10.25;6.30;;;;;;;15.23;91.15;99498.88;5070395;28;20041;-94
2023/10/02 03:47:34;;;;;;;10.13;7.35;;;;;;;14.83;95.32;99457.34;5085815;28;20068;-93
2023/10/02 03:50:00;;;;;;;11.40;6.82;;;;;;;15.45;93.17;99515.09;5071814;28;20039;-93
2023/10/02 03:52:28;;;;;;;11.63;6.53;;;;;;;15.06;92.57;99440.50;5071533;28;20048;-94
2023/10/02 03:54:55;;;;;;;11.93;6.35;;;;;;;15.47;92.74;99485.56;5070963;28;20090;-93
2023/10/02 04:00:24;;;;;;;8.27;4.93;;;;;;;15.82;91.15;99528.06;5106758;27;20371;-93
2023/10/02 04:02:52;;;;;;;9.15;5.57;;;;;;;15.53;91.38;99478.16;5052261;28;20045;-94
2023/10/02 04:11:03;;;;;;;11.32;5.90;;;;;;;15.52;90.96;99505.88;5146466;27;20728;-93
2023/10/02 04:13:32;;;;;;;9.80;5.85;;;;;;;15.52;91.29;99496.97;5139293;27;20043;-93
2023/10/02 04:19:00;;;;;;;9.35;5.65;;;;;;;15.52;91.43;99507.69;5155314;27;20374;-93
2023/10/02 04:21:27;;;;;;;;;;;;;;;15.63;91.72;99548.41;5139742;27;20086;-94
2023/10/02 04:23:53;;;;;;;8.35;5.78;;;;;;;15.42;92.57;99544.69;5136251;27;19926;-94
2023/10/02 04:26:20;;;;;;;11.05;5.80;;;;;;;14.81;94.45;99494.00;5136250;27;20063;-93
2023/10/02 04:28:55;;;;;;;8.13;5.20;;;;;;;14.55;95.93;99460.97;5136416;27;20451;-93
2023/10/02 04:31:23;;;;;;;10.20;5.43;;;;;;;14.67;96.82;99458.81;5132452;27;20392;-93
2023/10/02 04:34:15;;;;;;;10.57;6.00;;;;;;;14.88;97.25;99467.94;5137071;27;20039;-93
2023/10/02 04:36:40;;;;;;;12.88;6.18;;;;;;;14.98;96.10;99486.34;5120789;27;20050;-94
2023/10/02 04:39:11;;;;;;;8.88;5.78;;;;;;;15.10;95.75;99514.50;5135710;27;20518;-93
2023/10/02 04:42:09;;;;;;;10.57;6.15;;;;;;;14.87;95.22;99466.16;5136073;27;20047;-95
2023/10/02 04:44:23;;;;;;;8.93;5.60;;;;;;;15.15;95.13;99530.41;5120735;27;20035;-93
2023/10/02 04:46:52;;;;;;;8.60;6.03;;;;;;;14.97;95.13;99499.75;5135172;27;20050;-94
2023/10/02 04:49:18;;;;;;;12.02;5.90;;;;;;;14.67;95.59;99466.84;5136290;27;20039;-94
2023/10/02 04:51:46;;;;;;;10.82;5.55;;;;;;;14.93;95.48;99509.69;5136262;27;20138;-94
2023/10/02 04:54:15;;;;;;;8.55;5.45;;;;;;;14.69;95.44;99463.19;5134558;27;20041;-93
2023/10/02 04:56:46;;;;;;;9.52;5.70;;;;;;;15.03;95.91;99537.06;5138271;27;20038;-94
2023/10/02 04:59:12;;;;;;;10.73;5.25;;;;;;;14.48;98.46;99475.41;5137532;27;20508;-93
2023/10/02 05:01:42;;;;;;;9.27;5.45;;;;;;;14.69;97.98;99505.16;5132673;27;20046;-94
2023/10/02 05:04:08;;;;;;;11.63;5.57;;;;;;;14.52;98.73;99477.06;5134778;27;20035;-94
2023/10/02 05:09:38;;;;;;;11.63;6.20;;;;;;;14.63;98.74;99516.03;5135754;27;20363;-94
2023/10/02 05:12:06;;;;;;;9.38;5.93;;;;;;;14.25;100.00;99468.13;5133331;28;20107;-92
2023/10/02 05:14:34;;;;;;;12.00;5.72;;;;;;;14.31;100.00;99467.03;5140219;28;20042;-93
2023/10/02 05:20:04;;;;;;;10.60;5.78;;;;;;;14.70;100.00;99504.19;5162734;27;20358;-95
2023/10/02 05:22:32;;;;;;;10.02;5.57;;;;;;;14.92;100.00;99521.34;5144547;27;20047;-95
2023/10/02 05:24:59;;;;;;;11.38;6.45;;;;;;;14.85;100.00;99484.09;5144280;27;20049;-93
2023/10/02 05:27:30;;;;;;;12.05;6.65;;;;;;;15.06;100.00;99520.88;5143681;27;20102;-93
2023/10/02 05:30:01;;;;;;;11.52;6.53;;;;;;;15.11;99.81;99531.44;5138977;27;20055;-96
2023/10/02 05:32:31;;;;;;;13.55;5.90;;;;;;;15.03;98.57;99512.06;5134363;27;20043;-95
2023/10/02 05:35:04;;;;;;;11.50;5.80;;;;;;;14.83;98.22;99486.81;5139242;27;20039;-95
2023/10/02 05:37:32;;;;;;;11.32;6.00;;;;;;;15.11;98.73;99531.44;5136049;27;20043;-95
2023/10/02 05:48:31;;;;;;;10.95;7.35;;;;;;;15.22;100.00;99552.50;5131312;27;20373;-94
2023/10/02 05:50:58;;;;;;;11.23;7.03;;;;;;;15.22;100.00;99545.34;5117112;28;20043;-94
2023/10/02 05:53:26;;;;;;;17.85;8.68;;;;;;;15.18;98.90;99514.25;5116747;28;20078;-94
2023/10/02 05:58:55;;;;;;;10.18;6.35;;;;;;;15.75;96.74;99544.47;5119728;27;20369;-94
2023/10/02 06:01:26;;;;;;;9.70;6.50;;;;;;;15.64;95.58;99507.28;5119658;28;20043;-95
2023/10/02 06:03:56;;;;;;;10.13;6.15;;;;;;;15.75;94.62;99514.97;5111887;28;20043;-95
2023/10/02 06:06:23;;;;;;;10.48;6.03;;;;;;;15.73;94.31;99495.38;5117498;28;20060;-95
2023/10/02 06:14:54;;;;;;;19.45;7.82;;;;;;;16.09;93.37;99567.34;5115684;27;20380;-93
2023/10/02 06:17:20;;;;;;;11.43;6.70;;;;;;;15.99;93.08;99538.19;5112353;28;20050;-95
2023/10/02 06:19:48;;;;;;;12.13;6.80;;;;;;;15.75;94.41;99510.47;5113444;28;20512;-94
2023/10/02 06:22:14;;;;;;;10.73;5.95;;;;;;;16.08;93.16;99528.91;5115960;28;20076;-95
2023/10/02 06:24:41;;;;;;;11.05;6.40;;;;;;;16.31;92.44;99556.69;5117956;28;20055;-96
2023/10/02 06:27:14;;;;;;;11.25;6.28;;;;;;;16.08;91.35;99507.47;5117370;28;20450;-92
2023/10/02 06:29:44;;;;;;;11.18;6.72;;;;;;;16.40;90.46;99534.88;5114482;28;20032;-95
2023/10/02 06:32:16;;;;;;;9.10;5.78;;;;;;;16.43;89.17;99530.25;5115213;28;20040;-95
2023/10/02 06:34:44;;;;;;;11.43;6.28;;;;;;;16.42;88.92;99511.53;5132402;28;20112;-93
2023/10/02 06:37:12;;;;;;;14.57;6.53;;;;;;;16.54;88.17;99519.09;5116462;28;20074;-94
2023/10/02 06:39:40;;;;;;;10.25;5.97;;;;;;;16.91;88.45;99586.63;5117898;28;20443;-95
2023/10/02 06:42:07;;;;;;;11.55;6.40;;;;;;;16.64;86.51;99527.69;5117787;28;20048;-94
2023/10/02 06:44:52;;;;;;;13.00;6.82;;;;;;;16.81;85.92;99510.91;5115134;28;20485;-95
2023/10/02 06:47:22;;;;;;;12.20;6.47;;;;;;;17.16;86.15;99548.91;5116169;28;20412;-93
2023/10/02 06:49:51;;;;;;;9.68;6.32;;;;;;;17.07;84.55;99520.59;5134564;28;20078;-94
2023/10/02 06:52:17;;;;;;;10.48;6.88;;;;;;;17.09;83.37;99520.50;5116948;28;20584;-94
2023/10/02 06:54:45;;;;;;;9.68;6.22;;;;;;;17.44;82.94;99537.84;5114435;28;20079;-94
2023/10/02 06:57:13;;;;;;;14.13;6.65;;;;;;;17.19;81.92;99533.50;5117523;28;20085;-95
2023/10/02 06:59:40;;;;;;;10.57;5.95;;;;;;;17.59;81.43;99553.31;5116564;28;20412;-95
2023/10/02 07:02:06;;;;;;;12.27;6.30;;;;;;;17.81;79.39;99536.25;5116346;28;20043;-95
2023/10/02 07:04:35;;;;;;;10.63;5.82;;;;;;;18.05;79.59;99564.78;5116315;28;20051;-93
2023/10/02 07:07:03;;;;;;;16.00;6.47;;;;;;;18.17;79.62;99560.66;5116853;28;20046;-94
2023/10/02 07:09:34;;;;;;;8.35;5.60;;;;;;;18.35;78.36;99558.94;5115570;28;20067;-95
2023/10/02 07:12:08;;;;;;;10.23;6.05;;;;;;;18.23;76.55;99525.34;5132825;28;20497;-96
2023/10/02 07:14:36;;;;;;;15.95;6.03;;;;;;;18.37;75.49;99532.81;5113089;28;20052;-94
2023/10/02 07:17:11;;;;;;;10.85;5.07;;;;;;;18.55;75.34;99536.44;5115583;28;20093;-94
2023/10/02 07:19:39;;;;;;;9.15;5.25;;;;;;;18.92;74.28;99577.81;5112076;28;20047;-94
2023/10/02 07:22:16;;;;;;;8.73;5.72;;;;;;;18.98;72.98;99566.75;5110971;28;20040;-94
2023/10/02 07:24:43;;;;;;;11.40;7.88;;;;;;;18.90;72.90;99558.16;5105968;28;20118;-94
2023/10/02 07:27:22;;;;;;;14.07;9.13;;;;;;;18.92;72.12;99544.63;5097697;28;20066;-95
2023/10/02 07:29:51;;;;;;;21.75;10.07;;;;;;;18.97;72.27;99531.78;5098019;28;20051;-95
2023/10/02 07:32:18;;;;;;;12.95;6.25;;;;;;;19.38;70.45;99590.84;5100632;28;20042;-94
2023/10/02 07:34:46;;;;;;;13.20;5.55;;;;;;;19.17;71.33;99555.94;5097568;28;20059;-95
2023/10/02 07:37:15;;;;;;;12.02;6.00;;;;;;;19.59;68.85;99595.19;5100353;28;20032;-93
2023/10/02 07:39:42;;;;;;;9.68;5.68;;;;;;;19.75;69.09;99584.50;5099290;28;20047;-95
2023/10/02 07:42:10;;;;;;;10.23;5.35;;;;;;;19.49;68.62;99539.94;5099289;28;20047;-96
2023/10/02 07:44:37;;;;;;;8.63;4.70;;;;;;;19.72;67.55;99544.19;5104647;28;20051;-95
2023/10/02 07:47:10;;;;;;;8.82;5.18;;;;;;;20.22;67.33;99594.63;5100589;28;20040;-95
2023/10/02 07:49:37;;;;;;;8.38;5.32;;;;;;;20.26;65.40;99574.59;5100252;28;20048;-93
2023/10/02 07:52:07;;;;;;;9.18;4.97;;;;;;;20.00;66.34;99535.50;5096711;28;20042;-96
2023/10/02 07:57:35;;;;;;;10.23;5.10;;;;;;;20.63;63.57;99569.03;5180592;27;20375;-95
2023/10/02 08:00:06;;;;;;;12.68;6.25;;;;;;;20.55;63.88;99526.19;5163161;27;20475;-93
2023/10/02 08:02:33;;;;;;;11.80;5.53;;;;;;;20.80;63.41;99573.50;5167741;27;20038;-96
2023/10/02 08:05:02;;;;;;;10.38;5.55;;;;;;;20.81;63.51;99564.44;5164738;27;20035;-95
2023/10/02 08:07:29;;;;;;;8.52;5.10;;;;;;;21.07;63.00;99574.63;5167704;27;20067;-94
2023/10/02 08:09:57;;;;;;;9.32;5.72;;;;;;;21.07;62.20;99547.56;5163764;27;20399;-94
2023/10/02 08:12:31;;;;;;;9.13;5.25;;;;;;;21.24;62.51;99565.53;5164483;27;20495;-96
2023/10/02 08:15:03;;;;;;;12.32;5.80;;;;;;;21.45;61.62;99551.75;5162348;27;20549;-96
2023/10/02 08:20:19;;;;;;;9.60;5.00;;;;;;;21.64;60.29;99538.88;5134758;27;20382;-96
2023/10/02 08:22:45;;;;;;;12.90;4.75;;;;;;;21.89;59.45;99554.47;5135297;28;20039;-95
2023/10/02 08:25:13;;;;;;;11.02;4.82;;;;;;;21.78;59.87;99556.97;5134662;27;20622;-95
2023/10/02 08:27:39;;;;;;;10.20;5.80;;;;;;;21.75;59.56;99524.66;5134533;28;20047;-95
2023/10/02 08:30:18;;;;;;;8.80;5.13;;;;;;;22.23;58.68;99579.50;5132819;28;20043;-95
2023/10/02 08:32:45;;;;;;;11.38;5.03;;;;;;;22.29;60.04;99573.72;5131682;28;20039;-95
2023/10/02 08:35:13;;;;;;;9.48;4.88;;;;;;;22.10;58.72;99551.41;5131405;28;20077;-95
2023/10/02 08:37:41;;;;;;;10.85;5.32;;;;;;;22.38;58.11;99560.53;5132345;28;20073;-96
2023/10/02 08:40:08;;;;;;;8.15;5.47;;;;;;;22.73;57.89;99571.84;5132941;28;20039;-94
2023/10/02 08:42:34;;;;;;;10.02;5.15;;;;;;;22.83;57.21;99572.97;5131707;28;20130;-95
2023/10/02 08:45:01;;;;;;;8.93;5.68;;;;;;;22.76;57.64;99569.81;5131808;27;20039;-95
2023/10/02 08:47:27;;;;;;;13.27;5.60;;;;;;;22.92;56.76;99552.53;5131672;28;20093;-95
2023/10/02 08:50:03;;;;;;;9.85;4.72;;;;;;;23.04;56.23;99534.63;5131905;28;20031;-94
2023/10/02 08:52:38;;;;;;;10.55;5.25;;;;;;;23.14;55.91;99544.75;5131439;28;20065;-96
2023/10/02 08:55:33;;;;;;;10.90;5.13;;;;;;;23.49;55.06;99571.38;5131337;28;20043;-95
2023/10/02 09:07:21;;;;;;;8.95;6.13;;;;;;;24.05;52.96;99567.59;5136530;27;20375;-95
2023/10/02 09:09:54;;;;;;;12.65;5.65;;;;;;;23.89;53.25;99544.22;5114518;27;20047;-96
2023/10/02 09:12:21;;;;;;;12.77;6.65;;;;;;;24.09;52.39;99550.09;5113511;27;20046;-94
2023/10/02 09:14:51;;;;;;;9.13;5.65;;;;;;;24.30;51.84;99561.31;5120166;27;20061;-95
2023/10/02 09:20:07;;;;;;;12.65;5.00;;;;;;;24.11;50.78;99491.94;5116401;27;1484626;-95
2023/10/02 09:22:38;;;;;;;11.38;4.93;;;;;;;24.38;51.34;99507.25;5143845;27;20404;-94
2023/10/02 09:25:13;;;;;;;10.32;4.97;;;;;;;24.96;51.28;99570.13;5138079;27;20133;-94
2023/10/02 09:27:56;;;;;;;11.98;4.88;;;;;;;24.67;50.77;99499.72;5137261;27;20433;-94
2023/10/02 09:30:23;;;;;;;10.82;6.05;;;;;;;24.98;50.76;99522.81;5149321;27;20048;-95
2023/10/02 09:32:50;;;;;;;7.80;4.53;;;;;;;25.13;49.00;99515.31;5138396;27;20039;-94
2023/10/02 09:35:30;;;;;;;14.20;4.72;;;;;;;25.12;49.15;99483.66;5140189;27;20043;-94
2023/10/02 09:37:59;;;;;;;8.88;4.45;;;;;;;25.44;48.80;99503.97;5143855;27;20039;-92
2023/10/02 09:40:28;;;;;;;9.77;5.10;;;;;;;25.36;48.57;99466.47;5139421;27;20058;-96
2023/10/02 09:43:01;;;;;;;10.38;4.90;;;;;;;25.56;47.44;99473.94;5143579;27;20039;-93
2023/10/02 09:45:31;;;;;;;10.20;5.20;;;;;;;25.79;45.71;99487.63;5142276;27;20045;-95
2023/10/02 09:47:59;;;;;;;10.95;4.35;;;;;;;26.20;44.63;99508.88;5143618;27;20155;-95
2023/10/02 09:50:29;;;;;;;12.27;5.20;;;;;;;25.82;41.87;99447.34;5145979;27;20042;-94
2023/10/02 09:52:59;;;;;;;11.27;5.13;;;;;;;26.69;44.71;99514.97;5138958;27;20043;-94
2023/10/02 09:55:47;;;;;;;9.18;4.85;;;;;;;26.92;43.46;99520.41;5148058;27;20039;-95
2023/10/02 09:58:26;;;;;;;11.98;5.72;;;;;;;26.89;43.89;99498.81;5153371;27;20043;-95
2023/10/02 10:01:34;;;;;;;10.15;4.93;;;;;;;27.18;42.99;99531.88;5130489;28;20059;-96
2023/10/02 10:03:58;;;;;;;14.25;5.20;;;;;;;26.85;43.53;99470.94;5120429;27;20515;-95
2023/10/02 10:06:28;;;;;;;12.55;5.25;;;;;;;26.50;39.02;99443.78;5145330;27;20046;-96
2023/10/02 10:15:25;;;;;;;11.05;5.07;;;;;;;27.27;38.19;99453.81;5111919;27;20375;-93
2023/10/02 10:17:56;;;;;;;10.63;5.18;;;;;;;27.55;38.67;99487.81;5078164;28;20068;-95
2023/10/02 10:20:26;;;;;;;10.93;4.90;;;;;;;27.11;36.81;99438.69;5077714;28;20053;-95
2023/10/02 10:22:56;;;;;;;11.98;4.82;;;;;;;26.75;37.09;99443.53;5077477;28;20506;-94
2023/10/02 10:25:50;;;;;;;12.82;5.55;;;;;;;27.51;37.25;99492.66;5077346;28;20049;-95
2023/10/02 10:28:29;;;;;;;14.60;5.57;;;;;;;27.69;37.02;99509.31;5077654;28;20040;-95
2023/10/02 10:31:01;;;;;;;11.60;4.53;;;;;;;27.65;35.47;99491.44;5077479;28;20044;-93
2023/10/02 10:33:35;;;;;;;11.65;5.10;;;;;;;27.80;36.70;99490.16;5077522;28;20095;-95
2023/10/02 10:36:08;;;;;;;12.18;4.97;;;;;;;27.80;37.63;99486.53;5076934;28;20045;-95
2023/10/02 10:38:36;;;;;;;13.07;5.40;;;;;;;27.48;36.96;99440.13;5077846;28;20044;-96
2023/10/02 10:41:06;;;;;;;12.45;4.78;;;;;;;27.57;36.65;99463.94;5077746;28;20044;-95
2023/10/02 10:46:37;;;;;;;10.43;4.22;;;;;;;27.74;35.72;99449.69;5099087;27;20394;-94
2023/10/02 10:49:16;;;;;;;13.38;5.13;;;;;;;28.01;35.91;99464.69;5097629;28;20040;-94
2023/10/02 10:51:42;;;;;;;13.00;5.22;;;;;;;27.81;36.41;99433.63;5098329;28;20413;-95
2023/10/02 10:54:13;;;;;;;11.35;4.68;;;;;;;27.66;35.98;99416.69;5100891;28;20048;-94
2023/10/02 10:56:43;;;;;;;10.90;5.00;;;;;;;27.70;36.57;99428.22;5098594;28;20068;-95
2023/10/02 10:59:11;;;;;;;10.82;4.47;;;;;;;27.57;34.98;99433.91;5097165;28;20131;-95
2023/10/02 11:02:09;;;;;;;11.52;4.65;;;;;;;27.68;34.51;99414.69;5098144;28;20131;-96
2023/10/02 11:04:34;;;;;;;11.35;4.28;;;;;;;27.93;34.85;99409.81;5068646;28;20449;-95
2023/10/02 11:07:19;;;;;;;8.98;4.32;;;;;;;28.06;34.80;99414.06;5097260;28;20045;-95
2023/10/02 11:10:12;;;;;;;13.00;4.28;;;;;;;28.45;33.17;99457.97;5097200;28;20041;-94
2023/10/02 11:12:37;;;;;;;11.95;4.00;;;;;;;28.20;32.69;99418.28;5082975;28;20131;-96
2023/10/02 11:15:03;;;;;;;11.25;4.07;;;;;;;28.29;32.55;99415.72;5092858;28;20086;-94
2023/10/02 11:17:32;;;;;;;8.85;3.35;;;;;;;28.67;32.37;99456.06;5091954;28;20044;-95
2023/10/02 11:20:07;;;;;;;11.30;3.78;;;;;;;28.38;32.53;99421.22;5096926;28;20046;-96
2023/10/02 11:22:48;;;;;;;11.80;3.80;;;;;;;28.49;32.30;99416.69;5093778;28;20049;-94
2023/10/02 11:25:22;;;;;;;8.27;3.50;;;;;;;28.42;33.05;99409.00;5091592;28;20150;-93
2023/10/02 11:27:57;;;;;;;10.25;4.30;;;;;;;28.66;32.69;99451.56;5094775;28;20048;-95
2023/10/02 11:30:31;;;;;;;9.90;3.72;;;;;;;28.70;32.22;99420.19;5096356;28;20044;-95
2023/10/02 11:33:03;;;;;;;10.23;3.67;;;;;;;28.68;31.73;99387.47;5096723;28;20041;-96
2023/10/02 11:35:29;;;;;;;8.68;3.72;;;;;;;28.79;32.28;99397.41;5096440;28;20041;-95
2023/10/02 11:37:56;;;;;;;9.35;3.55;;;;;;;28.72;31.84;99385.31;5097174;28;20067;-94
2023/10/02 11:40:25;;;;;;;8.93;3.38;;;;;;;28.90;32.20;99415.59;5098564;28;20051;-96
2023/10/02 11:42:50;;;;;;;;;;;;;;;29.24;31.83;99450.81;5096116;28;20044;-95
2023/10/02 11:45:17;;;;;;;9.32;3.72;;;;;;;29.13;32.45;99424.44;5092950;28;19921;-96
2023/10/02 11:47:43;;;;;;;8.70;3.45;;;;;;;28.99;32.49;99402.91;5095086;28;20040;-94
2023/10/02 11:50:15;;;;;;;11.50;3.90;;;;;;;28.90;33.40;99395.56;5092675;28;20059;-95
2023/10/02 11:52:42;;;;;;;9.55;3.92;;;;;;;28.77;34.01;99360.25;5093346;28;20036;-95
2023/10/02 11:55:09;;;;;;;9.52;3.90;;;;;;;28.79;33.32;99372.78;5092399;28;20074;-95
2023/10/02 11:57:37;;;;;;;9.40;3.90;;;;;;;28.93;32.82;99404.38;5079295;28;20036;-95
2023/10/02 12:00:08;;;;;;;8.23;3.08;;;;;;;29.31;32.95;99408.13;5077362;28;20040;-95
2023/10/02 12:02:34;;;;;;;11.48;4.07;;;;;;;29.22;32.42;99387.94;5075643;28;20070;-94
2023/10/02 12:05:00;;;;;;;10.93;3.10;;;;;;;29.26;32.32;99381.16;5081101;28;20040;-94
2023/10/02 12:07:28;;;;;;;8.63;3.35;;;;;;;29.52;33.08;99418.91;5077074;28;20048;-95
2023/10/02 12:09:54;;;;;;;8.45;3.63;;;;;;;29.38;32.78;99389.22;5079016;28;20041;-93
2023/10/02 12:12:20;;;;;;;8.10;3.50;;;;;;;29.11;33.35;99333.34;5077788;28;20132;-95
2023/10/02 12:14:46;;;;;;;9.63;3.85;;;;;;;29.52;32.17;99390.66;5079952;28;20099;-95
2023/10/02 12:17:12;;;;;;;7.68;3.30;;;;;;;29.39;31.42;99358.09;5078869;28;20062;-95
2023/10/02 12:19:40;;;;;;;9.35;2.90;;;;;;;29.46;31.88;99361.97;5082376;28;20044;-95
2023/10/02 12:22:06;;;;;;;8.13;3.00;;;;;;;29.31;32.44;99344.25;5079833;28;20504;-94
2023/10/02 12:24:35;;;;;;;6.63;2.85;;;;;;;29.42;32.42;99349.56;5080358;28;20040;-95
2023/10/02 12:27:01;;;;;;;7.68;2.60;;;;;;;29.46;31.05;99351.00;5078090;28;20045;-94
2023/10/02 12:29:29;;;;;;;8.13;2.60;;;;;;;29.68;31.46;99345.16;5079035;28;20040;-95
2023/10/02 12:31:59;;;;;;;6.03;2.13;;;;;;;29.64;30.42;99346.44;5079349;28;20044;-94
2023/10/02 12:34:25;;;;;;;7.15;2.38;;;;;;;29.81;30.24;99364.03;5079105;28;20056;-94
2023/10/02 12:36:53;;;;;;;4.75;1.98;;;;;;;29.79;30.75;99359.72;5079210;28;20578;-95
2023/10/02 12:39:19;;;;;;;5.72;2.10;;;;;;;29.98;30.58;99370.59;5080337;28;20072;-95
2023/10/02 12:41:48;;;;;;;4.85;2.28;;;;;;;29.67;30.58;99305.06;5080190;28;20037;-96
2023/10/02 12:44:14;;;;;;;6.00;2.40;;;;;;;29.93;30.89;99342.78;5080170;28;20079;-95
2023/10/02 12:46:43;;;;;;;6.10;2.17;;;;;;;29.60;30.84;99338.69;5077719;28;20040;-94
2023/10/02 12:49:10;;;;;;;6.85;2.05;;;;;;;29.65;31.12;99326.28;5081025;28;20079;-95
2023/10/02 12:51:38;;;;;;;4.93;1.67;;;;;;;29.50;31.00;99303.09;5081125;28;20049;-95
2023/10/02 12:54:04;;;;;;;5.13;2.03;;;;;;;29.54;29.99;99288.09;5080196;28;20043;-95
2023/10/02 12:56:30;;;;;;;4.28;1.67;;;;;;;29.69;30.72;99281.13;5081370;28;20037;-95
2023/10/02 12:58:58;;;;;;;3.88;1.48;;;;;;;29.88;29.98;99315.84;5078921;28;20041;-94
2023/10/02 13:01:27;;;;;;;4.70;1.75;;;;;;;29.77;30.66;99301.44;5080198;28;20044;-95
2023/10/02 13:03:55;;;;;;;5.93;2.00;;;;;;;29.99;31.00;99333.94;5080236;28;20051;-95